sensor_id;sensor_type;location;lat;lon;timestamp;P1;durP1;ratioP1;P2;durP2;ratioP2
29816;SDS011;16805;52.956;5.906;2022-09-29T00:01:53;2.30;;;1.40;;
29816;SDS011;16805;52.956;5.906;2022-09-29T00:04:19;3.50;;;2.75;;
29816;SDS011;16805;52.956;5.906;2022-09-29T00:06:44;2.30;;;1.95;;
29816;SDS011;16805;52.956;5.906;2022-09-29T00:09:10;1.98;;;1.80;;
29816;SDS011;16805;52.956;5.906;2022-09-29T00:11:36;2.30;;;1.80;;
29816;SDS011;16805;52.956;5.906;2022-09-29T00:14:01;1.42;;;1.30;;
29816;SDS011;16805;52.956;5.906;2022-09-29T00:16:27;2.08;;;1.88;;
29816;SDS011;16805;52.956;5.906;2022-09-29T00:18:53;2.20;;;1.80;;
29816;SDS011;16805;52.956;5.906;2022-09-29T00:21:38;3.80;;;1.77;;
29816;SDS011;16805;52.956;5.906;2022-09-29T00:24:04;2.10;;;1.90;;
29816;SDS011;16805;52.956;5.906;2022-09-29T00:26:48;2.25;;;1.80;;
29816;SDS011;16805;52.956;5.906;2022-09-29T00:29:13;4.05;;;1.65;;
29816;SDS011;16805;52.956;5.906;2022-09-29T00:31:39;2.10;;;1.80;;
29816;SDS011;16805;52.956;5.906;2022-09-29T00:34:04;2.58;;;2.22;;
29816;SDS011;16805;52.956;5.906;2022-09-29T00:36:30;3.03;;;2.22;;
29816;SDS011;16805;52.956;5.906;2022-09-29T00:38:56;2.47;;;2.28;;
29816;SDS011;16805;52.956;5.906;2022-09-29T00:41:24;2.15;;;1.95;;
29816;SDS011;16805;52.956;5.906;2022-09-29T00:44:05;3.30;;;2.25;;
29816;SDS011;16805;52.956;5.906;2022-09-29T00:47:00;2.65;;;1.98;;
29816;SDS011;16805;52.956;5.906;2022-09-29T00:49:31;5.43;;;1.92;;
29816;SDS011;16805;52.956;5.906;2022-09-29T00:52:20;1.80;;;1.70;;
29816;SDS011;16805;52.956;5.906;2022-09-29T00:54:58;1.95;;;1.73;;
29816;SDS011;16805;52.956;5.906;2022-09-29T00:57:39;2.38;;;1.70;;
29816;SDS011;16805;52.956;5.906;2022-09-29T01:00:27;5.00;;;1.90;;
29816;SDS011;16805;52.956;5.906;2022-09-29T01:02:58;2.40;;;2.20;;
29816;SDS011;16805;52.956;5.906;2022-09-29T01:05:37;2.50;;;2.30;;
29816;SDS011;16805;52.956;5.906;2022-09-29T01:08:19;3.45;;;2.80;;
29816;SDS011;16805;52.956;5.906;2022-09-29T01:10:53;3.00;;;2.67;;
29816;SDS011;16805;52.956;5.906;2022-09-29T01:13:18;3.17;;;2.88;;
29816;SDS011;16805;52.956;5.906;2022-09-29T01:15:46;3.35;;;2.78;;
29816;SDS011;16805;52.956;5.906;2022-09-29T01:18:11;3.42;;;3.13;;
29816;SDS011;16805;52.956;5.906;2022-09-29T01:20:43;3.20;;;2.85;;
29816;SDS011;16805;52.956;5.906;2022-09-29T01:34:20;3.60;;;3.25;;
29816;SDS011;16805;52.956;5.906;2022-09-29T01:37:00;3.30;;;2.95;;
29816;SDS011;16805;52.956;5.906;2022-09-29T01:39:35;3.70;;;3.03;;
29816;SDS011;16805;52.956;5.906;2022-09-29T01:42:25;3.05;;;2.80;;
29816;SDS011;16805;52.956;5.906;2022-09-29T01:45:07;3.42;;;2.72;;
29816;SDS011;16805;52.956;5.906;2022-09-29T01:47:41;2.83;;;2.38;;
29816;SDS011;16805;52.956;5.906;2022-09-29T01:50:10;2.60;;;2.40;;
29816;SDS011;16805;52.956;5.906;2022-09-29T01:52:42;2.65;;;2.45;;
29816;SDS011;16805;52.956;5.906;2022-09-29T01:55:14;2.38;;;2.13;;
29816;SDS011;16805;52.956;5.906;2022-09-29T01:57:47;3.03;;;2.72;;
29816;SDS011;16805;52.956;5.906;2022-09-29T02:00:30;3.35;;;2.28;;
29816;SDS011;16805;52.956;5.906;2022-09-29T02:08:23;2.10;;;1.90;;
29816;SDS011;16805;52.956;5.906;2022-09-29T02:13:30;1.65;;;1.50;;
29816;SDS011;16805;52.956;5.906;2022-09-29T02:15:59;1.75;;;1.65;;
29816;SDS011;16805;52.956;5.906;2022-09-29T02:18:30;1.60;;;1.50;;
29816;SDS011;16805;52.956;5.906;2022-09-29T02:21:00;1.60;;;1.50;;
29816;SDS011;16805;52.956;5.906;2022-09-29T02:23:26;1.77;;;1.50;;
29816;SDS011;16805;52.956;5.906;2022-09-29T02:25:51;4.57;;;1.92;;
29816;SDS011;16805;52.956;5.906;2022-09-29T02:28:19;2.80;;;1.83;;
29816;SDS011;16805;52.956;5.906;2022-09-29T02:30:45;2.63;;;2.42;;
29816;SDS011;16805;52.956;5.906;2022-09-29T02:33:21;2.42;;;2.22;;
29816;SDS011;16805;52.956;5.906;2022-09-29T02:35:50;5.25;;;2.30;;
29816;SDS011;16805;52.956;5.906;2022-09-29T02:38:38;2.42;;;2.20;;
29816;SDS011;16805;52.956;5.906;2022-09-29T02:44:06;2.72;;;2.50;;
29816;SDS011;16805;52.956;5.906;2022-09-29T02:46:55;3.53;;;2.67;;
29816;SDS011;16805;52.956;5.906;2022-09-29T02:49:42;2.95;;;2.63;;
29816;SDS011;16805;52.956;5.906;2022-09-29T02:52:44;3.78;;;2.50;;
29816;SDS011;16805;52.956;5.906;2022-09-29T02:55:40;2.50;;;2.30;;
29816;SDS011;16805;52.956;5.906;2022-09-29T03:00:44;3.17;;;2.88;;
29816;SDS011;16805;52.956;5.906;2022-09-29T03:03:11;4.40;;;2.80;;
29816;SDS011;16805;52.956;5.906;2022-09-29T03:05:36;2.78;;;2.58;;
29816;SDS011;16805;52.956;5.906;2022-09-29T03:08:02;3.30;;;2.40;;
29816;SDS011;16805;52.956;5.906;2022-09-29T03:10:28;2.60;;;2.40;;
29816;SDS011;16805;52.956;5.906;2022-09-29T03:12:53;3.25;;;2.92;;
29816;SDS011;16805;52.956;5.906;2022-09-29T03:15:19;4.07;;;2.85;;
29816;SDS011;16805;52.956;5.906;2022-09-29T03:17:45;3.70;;;3.30;;
29816;SDS011;16805;52.956;5.906;2022-09-29T03:20:11;3.60;;;3.30;;
29816;SDS011;16805;52.956;5.906;2022-09-29T03:22:36;2.90;;;2.60;;
29816;SDS011;16805;52.956;5.906;2022-09-29T03:25:03;3.85;;;3.00;;
29816;SDS011;16805;52.956;5.906;2022-09-29T03:27:30;3.55;;;2.83;;
29816;SDS011;16805;52.956;5.906;2022-09-29T03:29:56;2.78;;;2.53;;
29816;SDS011;16805;52.956;5.906;2022-09-29T03:32:21;3.08;;;2.72;;
29816;SDS011;16805;52.956;5.906;2022-09-29T03:34:47;3.33;;;3.03;;
29816;SDS011;16805;52.956;5.906;2022-09-29T03:37:13;3.92;;;2.58;;
29816;SDS011;16805;52.956;5.906;2022-09-29T03:39:38;3.00;;;2.70;;
29816;SDS011;16805;52.956;5.906;2022-09-29T03:42:04;3.97;;;3.58;;
29816;SDS011;16805;52.956;5.906;2022-09-29T03:44:30;4.60;;;4.20;;
29816;SDS011;16805;52.956;5.906;2022-09-29T03:46:56;4.68;;;4.28;;
29816;SDS011;16805;52.956;5.906;2022-09-29T03:49:21;4.93;;;4.43;;
29816;SDS011;16805;52.956;5.906;2022-09-29T03:51:47;4.78;;;4.30;;
29816;SDS011;16805;52.956;5.906;2022-09-29T03:54:12;7.45;;;4.63;;
29816;SDS011;16805;52.956;5.906;2022-09-29T03:56:38;4.63;;;4.22;;
29816;SDS011;16805;52.956;5.906;2022-09-29T03:59:04;3.58;;;3.28;;
29816;SDS011;16805;52.956;5.906;2022-09-29T04:01:32;3.40;;;3.10;;
29816;SDS011;16805;52.956;5.906;2022-09-29T04:03:58;4.03;;;3.55;;
29816;SDS011;16805;52.956;5.906;2022-09-29T04:06:24;10.32;;;3.38;;
29816;SDS011;16805;52.956;5.906;2022-09-29T04:08:50;4.32;;;3.75;;
29816;SDS011;16805;52.956;5.906;2022-09-29T04:11:16;3.88;;;3.17;;
29816;SDS011;16805;52.956;5.906;2022-09-29T04:13:41;6.70;;;3.03;;
29816;SDS011;16805;52.956;5.906;2022-09-29T04:16:07;8.27;;;3.05;;
29816;SDS011;16805;52.956;5.906;2022-09-29T04:18:32;3.17;;;2.88;;
29816;SDS011;16805;52.956;5.906;2022-09-29T04:20:59;9.15;;;2.80;;
29816;SDS011;16805;52.956;5.906;2022-09-29T04:23:29;2.55;;;2.35;;
29816;SDS011;16805;52.956;5.906;2022-09-29T04:25:55;11.32;;;2.17;;
29816;SDS011;16805;52.956;5.906;2022-09-29T04:28:22;10.07;;;2.53;;
29816;SDS011;16805;52.956;5.906;2022-09-29T04:30:48;3.25;;;2.55;;
29816;SDS011;16805;52.956;5.906;2022-09-29T04:33:13;3.22;;;2.97;;
29816;SDS011;16805;52.956;5.906;2022-09-29T04:35:39;12.52;;;3.00;;
29816;SDS011;16805;52.956;5.906;2022-09-29T04:38:05;7.78;;;3.03;;
29816;SDS011;16805;52.956;5.906;2022-09-29T04:40:32;10.88;;;2.35;;
29816;SDS011;16805;52.956;5.906;2022-09-29T04:42:58;2.97;;;2.25;;
29816;SDS011;16805;52.956;5.906;2022-09-29T04:45:24;15.70;;;2.38;;
29816;SDS011;16805;52.956;5.906;2022-09-29T04:47:49;26.40;;;2.65;;
29816;SDS011;16805;52.956;5.906;2022-09-29T04:50:15;13.57;;;2.10;;
29816;SDS011;16805;52.956;5.906;2022-09-29T04:52:41;9.70;;;2.35;;
29816;SDS011;16805;52.956;5.906;2022-09-29T04:55:08;4.15;;;2.90;;
29816;SDS011;16805;52.956;5.906;2022-09-29T04:57:35;6.43;;;2.80;;
29816;SDS011;16805;52.956;5.906;2022-09-29T05:00:02;6.43;;;2.47;;
29816;SDS011;16805;52.956;5.906;2022-09-29T05:02:29;5.13;;;2.80;;
29816;SDS011;16805;52.956;5.906;2022-09-29T05:04:54;7.15;;;2.45;;
29816;SDS011;16805;52.956;5.906;2022-09-29T05:07:20;5.57;;;2.95;;
29816;SDS011;16805;52.956;5.906;2022-09-29T05:09:45;3.75;;;2.50;;
29816;SDS011;16805;52.956;5.906;2022-09-29T05:12:11;2.75;;;2.55;;
29816;SDS011;16805;52.956;5.906;2022-09-29T05:14:37;3.00;;;2.80;;
29816;SDS011;16805;52.956;5.906;2022-09-29T05:17:03;6.22;;;2.70;;
29816;SDS011;16805;52.956;5.906;2022-09-29T05:19:28;14.63;;;2.72;;
29816;SDS011;16805;52.956;5.906;2022-09-29T05:21:56;2.17;;;1.98;;
29816;SDS011;16805;52.956;5.906;2022-09-29T05:24:22;2.20;;;2.00;;
29816;SDS011;16805;52.956;5.906;2022-09-29T05:26:48;3.17;;;2.13;;
29816;SDS011;16805;52.956;5.906;2022-09-29T05:29:14;2.20;;;2.00;;
29816;SDS011;16805;52.956;5.906;2022-09-29T05:31:40;6.68;;;2.10;;
29816;SDS011;16805;52.956;5.906;2022-09-29T05:34:06;5.70;;;2.33;;
29816;SDS011;16805;52.956;5.906;2022-09-29T05:36:32;1.88;;;1.77;;
29816;SDS011;16805;52.956;5.906;2022-09-29T05:38:57;2.35;;;1.98;;
29816;SDS011;16805;52.956;5.906;2022-09-29T05:41:23;1.92;;;1.83;;
29816;SDS011;16805;52.956;5.906;2022-09-29T05:43:49;1.75;;;1.65;;
29816;SDS011;16805;52.956;5.906;2022-09-29T05:46:17;1.83;;;1.73;;
29816;SDS011;16805;52.956;5.906;2022-09-29T05:48:44;2.00;;;1.80;;
29816;SDS011;16805;52.956;5.906;2022-09-29T05:51:11;2.00;;;1.90;;
29816;SDS011;16805;52.956;5.906;2022-09-29T05:53:38;2.30;;;2.10;;
29816;SDS011;16805;52.956;5.906;2022-09-29T05:56:05;2.00;;;1.73;;
29816;SDS011;16805;52.956;5.906;2022-09-29T05:58:31;2.85;;;2.30;;
29816;SDS011;16805;52.956;5.906;2022-09-29T06:00:57;2.53;;;2.33;;
29816;SDS011;16805;52.956;5.906;2022-09-29T06:03:23;4.75;;;2.25;;
29816;SDS011;16805;52.956;5.906;2022-09-29T06:05:48;2.60;;;2.38;;
29816;SDS011;16805;52.956;5.906;2022-09-29T06:08:14;2.80;;;2.55;;
29816;SDS011;16805;52.956;5.906;2022-09-29T06:10:40;2.85;;;2.63;;
29816;SDS011;16805;52.956;5.906;2022-09-29T06:13:05;4.43;;;2.67;;
29816;SDS011;16805;52.956;5.906;2022-09-29T06:15:31;2.60;;;2.40;;
29816;SDS011;16805;52.956;5.906;2022-09-29T06:17:57;2.95;;;2.72;;
29816;SDS011;16805;52.956;5.906;2022-09-29T06:20:23;3.45;;;3.15;;
29816;SDS011;16805;52.956;5.906;2022-09-29T06:22:52;4.13;;;3.30;;
29816;SDS011;16805;52.956;5.906;2022-09-29T06:25:18;3.58;;;2.95;;
29816;SDS011;16805;52.956;5.906;2022-09-29T06:27:44;3.78;;;3.28;;
29816;SDS011;16805;52.956;5.906;2022-09-29T06:30:09;3.53;;;3.22;;
29816;SDS011;16805;52.956;5.906;2022-09-29T06:32:37;3.45;;;3.15;;
29816;SDS011;16805;52.956;5.906;2022-09-29T06:35:03;3.97;;;3.58;;
29816;SDS011;16805;52.956;5.906;2022-09-29T06:37:47;3.00;;;2.80;;
29816;SDS011;16805;52.956;5.906;2022-09-29T06:40:14;3.45;;;3.15;;
29816;SDS011;16805;52.956;5.906;2022-09-29T06:42:40;3.70;;;3.33;;
29816;SDS011;16805;52.956;5.906;2022-09-29T06:45:06;3.35;;;3.05;;
29816;SDS011;16805;52.956;5.906;2022-09-29T06:47:32;4.18;;;3.78;;
29816;SDS011;16805;52.956;5.906;2022-09-29T06:49:58;5.20;;;3.40;;
29816;SDS011;16805;52.956;5.906;2022-09-29T06:52:25;4.22;;;3.83;;
29816;SDS011;16805;52.956;5.906;2022-09-29T06:54:51;3.90;;;3.60;;
29816;SDS011;16805;52.956;5.906;2022-09-29T06:57:17;3.50;;;3.20;;
29816;SDS011;16805;52.956;5.906;2022-09-29T06:59:43;4.25;;;3.40;;
29816;SDS011;16805;52.956;5.906;2022-09-29T07:02:09;3.33;;;2.97;;
29816;SDS011;16805;52.956;5.906;2022-09-29T07:04:35;4.07;;;3.58;;
29816;SDS011;16805;52.956;5.906;2022-09-29T07:07:01;4.25;;;3.03;;
29816;SDS011;16805;52.956;5.906;2022-09-29T07:09:27;2.67;;;2.42;;
29816;SDS011;16805;52.956;5.906;2022-09-29T07:11:52;2.78;;;2.55;;
29816;SDS011;16805;52.956;5.906;2022-09-29T07:14:19;2.95;;;2.40;;
29816;SDS011;16805;52.956;5.906;2022-09-29T07:16:46;3.47;;;3.13;;
29816;SDS011;16805;52.956;5.906;2022-09-29T07:19:12;3.00;;;2.70;;
29816;SDS011;16805;52.956;5.906;2022-09-29T07:21:38;4.20;;;3.80;;
29816;SDS011;16805;52.956;5.906;2022-09-29T07:24:04;3.13;;;2.83;;
29816;SDS011;16805;52.956;5.906;2022-09-29T07:26:30;3.30;;;2.72;;
29816;SDS011;16805;52.956;5.906;2022-09-29T07:28:56;4.75;;;3.15;;
29816;SDS011;16805;52.956;5.906;2022-09-29T07:31:22;3.25;;;2.95;;
29816;SDS011;16805;52.956;5.906;2022-09-29T07:33:48;2.72;;;2.53;;
29816;SDS011;16805;52.956;5.906;2022-09-29T07:36:15;3.00;;;2.70;;
29816;SDS011;16805;52.956;5.906;2022-09-29T07:38:49;3.03;;;2.70;;
29816;SDS011;16805;52.956;5.906;2022-09-29T07:41:16;3.28;;;2.92;;
29816;SDS011;16805;52.956;5.906;2022-09-29T07:43:43;2.95;;;2.75;;
29816;SDS011;16805;52.956;5.906;2022-09-29T07:46:09;2.47;;;2.22;;
29816;SDS011;16805;52.956;5.906;2022-09-29T07:48:36;2.67;;;2.47;;
29816;SDS011;16805;52.956;5.906;2022-09-29T07:51:06;2.78;;;2.53;;
29816;SDS011;16805;52.956;5.906;2022-09-29T07:53:34;3.00;;;2.42;;
29816;SDS011;16805;52.956;5.906;2022-09-29T07:56:02;5.88;;;3.05;;
29816;SDS011;16805;52.956;5.906;2022-09-29T07:58:30;3.45;;;3.15;;
29816;SDS011;16805;52.956;5.906;2022-09-29T08:00:56;3.75;;;3.33;;
29816;SDS011;16805;52.956;5.906;2022-09-29T08:03:22;3.60;;;3.22;;
29816;SDS011;16805;52.956;5.906;2022-09-29T08:05:49;3.92;;;3.40;;
29816;SDS011;16805;52.956;5.906;2022-09-29T08:08:16;3.45;;;3.03;;
29816;SDS011;16805;52.956;5.906;2022-09-29T08:10:42;3.63;;;3.33;;
29816;SDS011;16805;52.956;5.906;2022-09-29T08:13:07;3.35;;;3.05;;
29816;SDS011;16805;52.956;5.906;2022-09-29T08:15:33;4.35;;;3.13;;
29816;SDS011;16805;52.956;5.906;2022-09-29T08:17:59;4.00;;;3.60;;
29816;SDS011;16805;52.956;5.906;2022-09-29T08:20:24;3.70;;;3.40;;
29816;SDS011;16805;52.956;5.906;2022-09-29T08:22:50;5.22;;;3.40;;
29816;SDS011;16805;52.956;5.906;2022-09-29T08:25:17;4.05;;;3.65;;
29816;SDS011;16805;52.956;5.906;2022-09-29T08:27:43;3.85;;;3.55;;
29816;SDS011;16805;52.956;5.906;2022-09-29T08:30:09;4.20;;;3.75;;
29816;SDS011;16805;52.956;5.906;2022-09-29T08:32:36;4.03;;;3.63;;
29816;SDS011;16805;52.956;5.906;2022-09-29T08:35:02;4.55;;;4.13;;
29816;SDS011;16805;52.956;5.906;2022-09-29T08:37:28;6.45;;;4.15;;
29816;SDS011;16805;52.956;5.906;2022-09-29T08:39:55;3.97;;;3.25;;
29816;SDS011;16805;52.956;5.906;2022-09-29T08:45:05;5.20;;;4.30;;
29816;SDS011;16805;52.956;5.906;2022-09-29T08:47:38;4.43;;;4.03;;
29816;SDS011;16805;52.956;5.906;2022-09-29T08:52:41;5.15;;;4.55;;
29816;SDS011;16805;52.956;5.906;2022-09-29T08:57:43;8.25;;;4.80;;
29816;SDS011;16805;52.956;5.906;2022-09-29T09:00:11;5.82;;;5.00;;
29816;SDS011;16805;52.956;5.906;2022-09-29T09:05:46;7.05;;;6.22;;
29816;SDS011;16805;52.956;5.906;2022-09-29T09:08:19;5.88;;;5.28;;
29816;SDS011;16805;52.956;5.906;2022-09-29T09:13:58;6.82;;;6.13;;
29816;SDS011;16805;52.956;5.906;2022-09-29T09:27:55;6.85;;;5.03;;
29816;SDS011;16805;52.956;5.906;2022-09-29T09:30:23;5.28;;;4.78;;
29816;SDS011;16805;52.956;5.906;2022-09-29T09:32:58;5.40;;;4.75;;
29816;SDS011;16805;52.956;5.906;2022-09-29T09:38:04;6.18;;;4.88;;
29816;SDS011;16805;52.956;5.906;2022-09-29T09:40:40;5.07;;;3.75;;
29816;SDS011;16805;52.956;5.906;2022-09-29T09:43:31;4.90;;;4.40;;
29816;SDS011;16805;52.956;5.906;2022-09-29T09:46:07;5.75;;;4.78;;
29816;SDS011;16805;52.956;5.906;2022-09-29T09:48:43;7.18;;;4.28;;
29816;SDS011;16805;52.956;5.906;2022-09-29T09:54:29;3.80;;;3.40;;
29816;SDS011;16805;52.956;5.906;2022-09-29T09:57:02;4.68;;;3.28;;
29816;SDS011;16805;52.956;5.906;2022-09-29T10:02:18;3.50;;;3.20;;
29816;SDS011;16805;52.956;5.906;2022-09-29T10:04:52;2.50;;;2.30;;
29816;SDS011;16805;52.956;5.906;2022-09-29T10:07:19;2.85;;;2.55;;
29816;SDS011;16805;52.956;5.906;2022-09-29T10:09:46;3.53;;;2.15;;
29816;SDS011;16805;52.956;5.906;2022-09-29T10:12:22;3.35;;;2.10;;
29816;SDS011;16805;52.956;5.906;2022-09-29T10:14:53;2.25;;;2.03;;
29816;SDS011;16805;52.956;5.906;2022-09-29T10:17:24;1.80;;;1.67;;
29816;SDS011;16805;52.956;5.906;2022-09-29T10:22:24;2.08;;;1.60;;
29816;SDS011;16805;52.956;5.906;2022-09-29T10:24:52;2.17;;;1.60;;
29816;SDS011;16805;52.956;5.906;2022-09-29T10:27:22;2.47;;;1.83;;
29816;SDS011;16805;52.956;5.906;2022-09-29T10:29:51;2.00;;;1.80;;
29816;SDS011;16805;52.956;5.906;2022-09-29T10:35:02;2.67;;;1.67;;
29816;SDS011;16805;52.956;5.906;2022-09-29T10:37:41;2.05;;;1.50;;
29816;SDS011;16805;52.956;5.906;2022-09-29T10:42:43;3.15;;;1.88;;
29816;SDS011;16805;52.956;5.906;2022-09-29T10:45:11;2.30;;;1.60;;
29816;SDS011;16805;52.956;5.906;2022-09-29T10:47:39;1.58;;;1.42;;
29816;SDS011;16805;52.956;5.906;2022-09-29T10:50:29;2.45;;;2.05;;
29816;SDS011;16805;52.956;5.906;2022-09-29T10:52:58;3.70;;;1.70;;
29816;SDS011;16805;52.956;5.906;2022-09-29T10:55:45;1.50;;;1.30;;
29816;SDS011;16805;52.956;5.906;2022-09-29T10:58:32;2.92;;;1.40;;
29816;SDS011;16805;52.956;5.906;2022-09-29T11:01:05;2.45;;;1.20;;
29816;SDS011;16805;52.956;5.906;2022-09-29T11:03:55;1.83;;;1.63;;
29816;SDS011;16805;52.956;5.906;2022-09-29T11:06:37;2.42;;;1.30;;
29816;SDS011;16805;52.956;5.906;2022-09-29T11:16:57;1.40;;;0.60;;
29816;SDS011;16805;52.956;5.906;2022-09-29T11:19:24;0.95;;;0.47;;
29816;SDS011;16805;52.956;5.906;2022-09-29T11:30:14;1.05;;;0.50;;
29816;SDS011;16805;52.956;5.906;2022-09-29T11:43:59;2.05;;;0.90;;
29816;SDS011;16805;52.956;5.906;2022-09-29T11:46:40;0.82;;;0.63;;
29816;SDS011;16805;52.956;5.906;2022-09-29T11:52:06;2.55;;;0.90;;
29816;SDS011;16805;52.956;5.906;2022-09-29T12:00:04;1.13;;;0.85;;
29816;SDS011;16805;52.956;5.906;2022-09-29T12:16:50;1.65;;;1.55;;
29816;SDS011;16805;52.956;5.906;2022-09-29T12:19:43;2.50;;;1.20;;
29816;SDS011;16805;52.956;5.906;2022-09-29T12:22:16;2.00;;;1.45;;
29816;SDS011;16805;52.956;5.906;2022-09-29T12:24:46;3.45;;;2.78;;
29816;SDS011;16805;52.956;5.906;2022-09-29T12:38:10;1.77;;;0.93;;
29816;SDS011;16805;52.956;5.906;2022-09-29T12:46:10;1.17;;;0.80;;
29816;SDS011;16805;52.956;5.906;2022-09-29T12:48:57;0.93;;;0.70;;
29816;SDS011;16805;52.956;5.906;2022-09-29T12:51:45;1.10;;;0.88;;
29816;SDS011;16805;52.956;5.906;2022-09-29T12:57:31;1.42;;;0.75;;
29816;SDS011;16805;52.956;5.906;2022-09-29T12:59:56;1.00;;;0.57;;
29816;SDS011;16805;52.956;5.906;2022-09-29T13:02:51;1.27;;;0.63;;
29816;SDS011;16805;52.956;5.906;2022-09-29T13:08:38;0.60;;;0.50;;
29816;SDS011;16805;52.956;5.906;2022-09-29T13:16:38;2.28;;;0.52;;
29816;SDS011;16805;52.956;5.906;2022-09-29T13:22:14;1.73;;;0.40;;
29816;SDS011;16805;52.956;5.906;2022-09-29T13:27:40;0.57;;;0.57;;
29816;SDS011;16805;52.956;5.906;2022-09-29T13:30:23;0.20;;;0.20;;
29816;SDS011;16805;52.956;5.906;2022-09-29T13:32:51;0.52;;;0.30;;
29816;SDS011;16805;52.956;5.906;2022-09-29T13:59:20;0.32;;;0.20;;
29816;SDS011;16805;52.956;5.906;2022-09-29T14:01:48;1.45;;;0.40;;
29816;SDS011;16805;52.956;5.906;2022-09-29T14:04:36;0.50;;;0.40;;
29816;SDS011;16805;52.956;5.906;2022-09-29T14:07:44;0.88;;;0.50;;
29816;SDS011;16805;52.956;5.906;2022-09-29T14:10:21;2.30;;;0.50;;
29816;SDS011;16805;52.956;5.906;2022-09-29T14:18:45;1.17;;;0.70;;
29816;SDS011;16805;52.956;5.906;2022-09-29T14:27:16;1.63;;;0.80;;
29816;SDS011;16805;52.956;5.906;2022-09-29T14:35:34;0.82;;;0.70;;
29816;SDS011;16805;52.956;5.906;2022-09-29T15:02:45;0.30;;;0.30;;
29816;SDS011;16805;52.956;5.906;2022-09-29T15:05:20;0.60;;;0.50;;
29816;SDS011;16805;52.956;5.906;2022-09-29T15:08:21;1.63;;;0.50;;
29816;SDS011;16805;52.956;5.906;2022-09-29T15:10:52;1.05;;;0.60;;
29816;SDS011;16805;52.956;5.906;2022-09-29T15:13:24;0.77;;;0.20;;
29816;SDS011;16805;52.956;5.906;2022-09-29T15:15:54;0.38;;;0.35;;
29816;SDS011;16805;52.956;5.906;2022-09-29T15:18:35;0.45;;;0.30;;
29816;SDS011;16805;52.956;5.906;2022-09-29T15:21:07;0.75;;;0.55;;
29816;SDS011;16805;52.956;5.906;2022-09-29T15:26:39;1.63;;;1.52;;
29816;SDS011;16805;52.956;5.906;2022-09-29T15:29:05;3.22;;;2.08;;
29816;SDS011;16805;52.956;5.906;2022-09-29T15:31:33;3.22;;;2.08;;
29816;SDS011;16805;52.956;5.906;2022-09-29T15:34:00;3.03;;;2.45;;
29816;SDS011;16805;52.956;5.906;2022-09-29T15:36:29;0.80;;;0.30;;
29816;SDS011;16805;52.956;5.906;2022-09-29T15:42:21;0.20;;;0.20;;
29816;SDS011;16805;52.956;5.906;2022-09-29T15:44:51;0.10;;;0.10;;
29816;SDS011;16805;52.956;5.906;2022-09-29T15:47:28;0.20;;;0.20;;
29816;SDS011;16805;52.956;5.906;2022-09-29T15:50:04;0.10;;;0.10;;
29816;SDS011;16805;52.956;5.906;2022-09-29T15:52:46;0.40;;;0.15;;
29816;SDS011;16805;52.956;5.906;2022-09-29T15:55:14;0.10;;;0.10;;
29816;SDS011;16805;52.956;5.906;2022-09-29T15:57:46;0.32;;;0.20;;
29816;SDS011;16805;52.956;5.906;2022-09-29T16:03:07;0.20;;;0.20;;
29816;SDS011;16805;52.956;5.906;2022-09-29T16:06:03;0.30;;;0.30;;
29816;SDS011;16805;52.956;5.906;2022-09-29T16:08:38;0.10;;;0.10;;
29816;SDS011;16805;52.956;5.906;2022-09-29T16:11:07;0.20;;;0.20;;
29816;SDS011;16805;52.956;5.906;2022-09-29T16:13:45;0.10;;;0.10;;
29816;SDS011;16805;52.956;5.906;2022-09-29T16:16:14;0.38;;;0.20;;
29816;SDS011;16805;52.956;5.906;2022-09-29T16:18:41;0.73;;;0.20;;
29816;SDS011;16805;52.956;5.906;2022-09-29T16:21:11;0.25;;;0.20;;
29816;SDS011;16805;52.956;5.906;2022-09-29T16:26:14;0.70;;;0.15;;
29816;SDS011;16805;52.956;5.906;2022-09-29T16:28:59;0.35;;;0.17;;
29816;SDS011;16805;52.956;5.906;2022-09-29T16:31:25;0.35;;;0.13;;
29816;SDS011;16805;52.956;5.906;2022-09-29T16:33:56;0.45;;;0.20;;
29816;SDS011;16805;52.956;5.906;2022-09-29T16:38:57;0.20;;;0.20;;
29816;SDS011;16805;52.956;5.906;2022-09-29T16:46:56;0.43;;;0.38;;
29816;SDS011;16805;52.956;5.906;2022-09-29T16:49:44;0.93;;;0.38;;
29816;SDS011;16805;52.956;5.906;2022-09-29T16:54:44;1.85;;;0.40;;
29816;SDS011;16805;52.956;5.906;2022-09-29T16:57:16;2.00;;;0.50;;
29816;SDS011;16805;52.956;5.906;2022-09-29T16:59:55;1.05;;;0.45;;
29816;SDS011;16805;52.956;5.906;2022-09-29T17:02:22;0.57;;;0.43;;
29816;SDS011;16805;52.956;5.906;2022-09-29T17:04:52;1.75;;;0.77;;
29816;SDS011;16805;52.956;5.906;2022-09-29T17:07:21;0.70;;;0.70;;
29816;SDS011;16805;52.956;5.906;2022-09-29T17:09:55;2.35;;;0.80;;
29816;SDS011;16805;52.956;5.906;2022-09-29T17:12:23;2.40;;;0.93;;
29816;SDS011;16805;52.956;5.906;2022-09-29T17:14:50;3.17;;;1.00;;
29816;SDS011;16805;52.956;5.906;2022-09-29T17:17:17;2.97;;;1.30;;
29816;SDS011;16805;52.956;5.906;2022-09-29T17:19:48;2.28;;;1.10;;
29816;SDS011;16805;52.956;5.906;2022-09-29T17:22:28;1.00;;;0.70;;
29816;SDS011;16805;52.956;5.906;2022-09-29T17:24:55;5.30;;;0.93;;
29816;SDS011;16805;52.956;5.906;2022-09-29T17:27:22;0.80;;;0.43;;
29816;SDS011;16805;52.956;5.906;2022-09-29T17:30:06;0.32;;;0.30;;
29816;SDS011;16805;52.956;5.906;2022-09-29T17:32:33;1.30;;;0.47;;
29816;SDS011;16805;52.956;5.906;2022-09-29T17:35:00;0.05;;;0.05;;
29816;SDS011;16805;52.956;5.906;2022-09-29T17:37:26;0.10;;;0.10;;
29816;SDS011;16805;52.956;5.906;2022-09-29T17:39:51;0.30;;;0.10;;
29816;SDS011;16805;52.956;5.906;2022-09-29T17:42:17;0.20;;;0.13;;
29816;SDS011;16805;52.956;5.906;2022-09-29T17:44:43;0.03;;;0.03;;
29816;SDS011;16805;52.956;5.906;2022-09-29T17:47:12;1.95;;;0.10;;
29816;SDS011;16805;52.956;5.906;2022-09-29T17:49:39;0.10;;;0.10;;
29816;SDS011;16805;52.956;5.906;2022-09-29T17:52:06;1.15;;;0.20;;
29816;SDS011;16805;52.956;5.906;2022-09-29T17:54:34;0.88;;;0.30;;
29816;SDS011;16805;52.956;5.906;2022-09-29T17:57:01;1.20;;;0.22;;
29816;SDS011;16805;52.956;5.906;2022-09-29T17:59:27;0.30;;;0.13;;
29816;SDS011;16805;52.956;5.906;2022-09-29T18:01:53;0.57;;;0.40;;
29816;SDS011;16805;52.956;5.906;2022-09-29T18:04:18;4.18;;;2.00;;
29816;SDS011;16805;52.956;5.906;2022-09-29T18:06:44;2.00;;;0.85;;
29816;SDS011;16805;52.956;5.906;2022-09-29T18:09:14;2.78;;;0.43;;
29816;SDS011;16805;52.956;5.906;2022-09-29T18:11:41;1.77;;;0.73;;
29816;SDS011;16805;52.956;5.906;2022-09-29T18:14:07;0.40;;;0.40;;
29816;SDS011;16805;52.956;5.906;2022-09-29T18:16:33;1.17;;;0.40;;
29816;SDS011;16805;52.956;5.906;2022-09-29T18:18:58;0.95;;;0.60;;
29816;SDS011;16805;52.956;5.906;2022-09-29T18:21:24;0.77;;;0.50;;
29816;SDS011;16805;52.956;5.906;2022-09-29T18:23:50;4.68;;;2.20;;
29816;SDS011;16805;52.956;5.906;2022-09-29T18:26:15;6.32;;;2.95;;
29816;SDS011;16805;52.956;5.906;2022-09-29T18:28:42;3.47;;;1.95;;
29816;SDS011;16805;52.956;5.906;2022-09-29T18:31:18;3.28;;;2.05;;
29816;SDS011;16805;52.956;5.906;2022-09-29T18:33:51;2.60;;;1.20;;
29816;SDS011;16805;52.956;5.906;2022-09-29T18:36:17;1.67;;;1.00;;
29816;SDS011;16805;52.956;5.906;2022-09-29T18:38:42;2.55;;;1.10;;
29816;SDS011;16805;52.956;5.906;2022-09-29T18:41:12;1.27;;;0.70;;
29816;SDS011;16805;52.956;5.906;2022-09-29T18:43:40;1.48;;;1.05;;
29816;SDS011;16805;52.956;5.906;2022-09-29T18:46:07;1.25;;;0.88;;
29816;SDS011;16805;52.956;5.906;2022-09-29T18:48:33;1.15;;;0.90;;
29816;SDS011;16805;52.956;5.906;2022-09-29T18:50:58;1.70;;;0.85;;
29816;SDS011;16805;52.956;5.906;2022-09-29T18:53:24;1.00;;;0.60;;
29816;SDS011;16805;52.956;5.906;2022-09-29T18:55:53;0.68;;;0.60;;
29816;SDS011;16805;52.956;5.906;2022-09-29T18:58:21;0.70;;;0.50;;
29816;SDS011;16805;52.956;5.906;2022-09-29T19:00:50;1.75;;;0.70;;
29816;SDS011;16805;52.956;5.906;2022-09-29T19:03:19;0.88;;;0.60;;
29816;SDS011;16805;52.956;5.906;2022-09-29T19:05:47;1.38;;;0.60;;